sensor_id;sensor_type;location;lat;lon;timestamp;pressure;altitude;pressure_sealevel;temperature;humidity
78383;BME280;67668;52.294;4.692;2023-11-22T00:00:58;102939.56;;;8.56;89.47
78383;BME280;67668;52.294;4.692;2023-11-22T00:03:23;102931.72;;;8.55;89.65
78383;BME280;67668;52.294;4.692;2023-11-22T00:05:49;102926.44;;;8.55;89.88
78383;BME280;67668;52.294;4.692;2023-11-22T00:08:15;102930.88;;;8.54;89.45
78383;BME280;67668;52.294;4.692;2023-11-22T00:10:40;102929.16;;;8.53;89.76
78383;BME280;67668;52.294;4.692;2023-11-22T00:13:05;102943.13;;;8.55;89.81
78383;BME280;67668;52.294;4.692;2023-11-22T00:15:31;102948.38;;;8.55;89.80
78383;BME280;67668;52.294;4.692;2023-11-22T00:17:56;102944.94;;;8.55;89.53
78383;BME280;67668;52.294;4.692;2023-11-22T00:20:23;102947.56;;;8.55;89.78
78383;BME280;67668;52.294;4.692;2023-11-22T00:22:48;102946.69;;;8.54;89.40
78383;BME280;67668;52.294;4.692;2023-11-22T00:25:15;102945.84;;;8.54;89.87
78383;BME280;67668;52.294;4.692;2023-11-22T00:27:40;102949.34;;;8.54;89.81
78383;BME280;67668;52.294;4.692;2023-11-22T00:30:07;102948.38;;;8.55;89.56
78383;BME280;67668;52.294;4.692;2023-11-22T00:32:32;102952.84;;;8.55;89.57
78383;BME280;67668;52.294;4.692;2023-11-22T00:34:57;102951.19;;;8.52;89.75
78383;BME280;67668;52.294;4.692;2023-11-22T00:37:23;102950.25;;;8.53;89.79
78383;BME280;67668;52.294;4.692;2023-11-22T00:39:48;102949.34;;;8.54;89.48
78383;BME280;67668;52.294;4.692;2023-11-22T00:42:14;102945.00;;;8.53;89.67
78383;BME280;67668;52.294;4.692;2023-11-22T00:44:39;102954.69;;;8.53;89.79
78383;BME280;67668;52.294;4.692;2023-11-22T00:47:04;102964.31;;;8.54;89.50
78383;BME280;67668;52.294;4.692;2023-11-22T00:49:30;102960.81;;;8.53;89.53
78383;BME280;67668;52.294;4.692;2023-11-22T00:51:55;102959.97;;;8.53;89.55
78383;BME280;67668;52.294;4.692;2023-11-22T00:54:20;102956.47;;;8.52;89.64
78383;BME280;67668;52.294;4.692;2023-11-22T00:56:46;102973.25;;;8.51;89.54
78383;BME280;67668;52.294;4.692;2023-11-22T00:59:11;102979.34;;;8.52;90.08
78383;BME280;67668;52.294;4.692;2023-11-22T01:01:37;102983.81;;;8.51;89.89
78383;BME280;67668;52.294;4.692;2023-11-22T01:04:02;102994.38;;;8.51;89.66
78383;BME280;67668;52.294;4.692;2023-11-22T01:06:27;102986.44;;;8.51;89.68
78383;BME280;67668;52.294;4.692;2023-11-22T01:08:54;102986.50;;;8.50;90.28
78383;BME280;67668;52.294;4.692;2023-11-22T01:11:19;102990.00;;;8.50;89.79
78383;BME280;67668;52.294;4.692;2023-11-22T01:13:45;103000.56;;;8.50;89.92
78383;BME280;67668;52.294;4.692;2023-11-22T01:16:11;102985.66;;;8.49;89.93
78383;BME280;67668;52.294;4.692;2023-11-22T01:18:37;102995.28;;;8.50;89.68
78383;BME280;67668;52.294;4.692;2023-11-22T01:21:03;102997.91;;;8.50;89.84
78383;BME280;67668;52.294;4.692;2023-11-22T01:23:31;102990.00;;;8.50;89.92
78383;BME280;67668;52.294;4.692;2023-11-22T01:25:57;102991.78;;;8.50;89.98
78383;BME280;67668;52.294;4.692;2023-11-22T01:28:23;102991.78;;;8.50;89.69
78383;BME280;67668;52.294;4.692;2023-11-22T01:30:49;102991.78;;;8.50;89.98
78383;BME280;67668;52.294;4.692;2023-11-22T01:33:14;102994.50;;;8.48;89.63
78383;BME280;67668;52.294;4.692;2023-11-22T01:35:40;102999.78;;;8.48;89.74
78383;BME280;67668;52.294;4.692;2023-11-22T01:38:05;103002.50;;;8.47;89.72
78383;BME280;67668;52.294;4.692;2023-11-22T01:40:31;103004.28;;;8.46;89.80
78383;BME280;67668;52.294;4.692;2023-11-22T01:43:00;103014.81;;;8.46;89.69
78383;BME280;67668;52.294;4.692;2023-11-22T01:45:27;103014.81;;;8.46;89.32
78383;BME280;67668;52.294;4.692;2023-11-22T01:47:55;103022.91;;;8.43;89.39
78383;BME280;67668;52.294;4.692;2023-11-22T01:50:20;103029.91;;;8.44;89.32
78383;BME280;67668;52.294;4.692;2023-11-22T01:52:46;103024.63;;;8.44;88.89
78383;BME280;67668;52.294;4.692;2023-11-22T01:55:12;103027.31;;;8.43;88.57
78383;BME280;67668;52.294;4.692;2023-11-22T01:57:38;103019.50;;;8.41;88.56
78383;BME280;67668;52.294;4.692;2023-11-22T02:00:04;103023.00;;;8.42;88.49
78383;BME280;67668;52.294;4.692;2023-11-22T02:02:33;103020.41;;;8.40;88.54
78383;BME280;67668;52.294;4.692;2023-11-22T02:04:58;103005.50;;;8.39;87.65
78383;BME280;67668;52.294;4.692;2023-11-22T02:07:23;103015.28;;;8.37;87.34
78383;BME280;67668;52.294;4.692;2023-11-22T02:09:50;103008.38;;;8.35;87.00
78383;BME280;67668;52.294;4.692;2023-11-22T02:12:18;103011.94;;;8.34;86.79
78383;BME280;67668;52.294;4.692;2023-11-22T02:14:44;103007.66;;;8.31;86.59
78383;BME280;67668;52.294;4.692;2023-11-22T02:17:10;103003.41;;;8.28;86.15
78383;BME280;67668;52.294;4.692;2023-11-22T02:19:35;103006.06;;;8.27;86.25
78383;BME280;67668;52.294;4.692;2023-11-22T02:22:02;103007.06;;;8.24;86.09
78383;BME280;67668;52.294;4.692;2023-11-22T02:24:27;103003.63;;;8.22;85.73
78383;BME280;67668;52.294;4.692;2023-11-22T02:26:52;102999.38;;;8.20;85.73
78383;BME280;67668;52.294;4.692;2023-11-22T02:29:18;103000.28;;;8.19;85.87
78383;BME280;67668;52.294;4.692;2023-11-22T02:31:43;102994.25;;;8.17;85.95
78383;BME280;67668;52.294;4.692;2023-11-22T02:34:09;102998.75;;;8.15;85.79
78383;BME280;67668;52.294;4.692;2023-11-22T02:36:34;102992.78;;;8.11;85.17
78383;BME280;67668;52.294;4.692;2023-11-22T02:38:59;102995.41;;;8.11;85.56
78383;BME280;67668;52.294;4.692;2023-11-22T02:41:27;102996.38;;;8.09;85.07
78383;BME280;67668;52.294;4.692;2023-11-22T02:43:54;102984.28;;;8.05;85.14
78383;BME280;67668;52.294;4.692;2023-11-22T02:46:20;102998.41;;;8.04;85.76
78383;BME280;67668;52.294;4.692;2023-11-22T02:48:45;103006.38;;;8.02;86.22
78383;BME280;67668;52.294;4.692;2023-11-22T02:51:10;103006.50;;;7.99;85.83
78383;BME280;67668;52.294;4.692;2023-11-22T02:53:36;103001.25;;;7.99;86.29
78383;BME280;67668;52.294;4.692;2023-11-22T02:56:02;102994.28;;;7.98;86.29
78383;BME280;67668;52.294;4.692;2023-11-22T02:58:30;102996.19;;;7.95;86.44
78383;BME280;67668;52.294;4.692;2023-11-22T03:00:56;102986.56;;;7.94;85.80
78383;BME280;67668;52.294;4.692;2023-11-22T03:03:23;102994.53;;;7.92;86.16
78383;BME280;67668;52.294;4.692;2023-11-22T03:05:49;102991.06;;;7.92;85.79
78383;BME280;67668;52.294;4.692;2023-11-22T03:08:15;102996.41;;;7.90;86.45
78383;BME280;67668;52.294;4.692;2023-11-22T03:10:41;103007.88;;;7.89;86.45
78383;BME280;67668;52.294;4.692;2023-11-22T03:13:07;103006.19;;;7.88;86.37
78383;BME280;67668;52.294;4.692;2023-11-22T03:15:34;102999.25;;;7.86;86.31
78383;BME280;67668;52.294;4.692;2023-11-22T03:17:59;103012.50;;;7.84;86.41
78383;BME280;67668;52.294;4.692;2023-11-22T03:20:25;103012.56;;;7.82;86.27
78383;BME280;67668;52.294;4.692;2023-11-22T03:22:50;103018.78;;;7.82;86.24
78383;BME280;67668;52.294;4.692;2023-11-22T03:25:16;103025.03;;;7.79;86.13
78383;BME280;67668;52.294;4.692;2023-11-22T03:27:41;103034.81;;;7.77;86.29
78383;BME280;67668;52.294;4.692;2023-11-22T03:30:07;103035.72;;;7.76;86.38
78383;BME280;67668;52.294;4.692;2023-11-22T03:32:39;103058.63;;;7.75;86.63
78383;BME280;67668;52.294;4.692;2023-11-22T03:35:06;103063.06;;;7.73;86.92
78383;BME280;67668;52.294;4.692;2023-11-22T03:37:32;103063.06;;;7.73;86.95
78383;BME280;67668;52.294;4.692;2023-11-22T03:39:58;103071.06;;;7.72;86.92
78383;BME280;67668;52.294;4.692;2023-11-22T03:42:23;103073.75;;;7.70;87.10
78383;BME280;67668;52.294;4.692;2023-11-22T03:44:49;103073.75;;;7.70;86.82
78383;BME280;67668;52.294;4.692;2023-11-22T03:47:15;103077.31;;;7.69;86.90
78383;BME280;67668;52.294;4.692;2023-11-22T03:49:40;103078.31;;;7.67;87.50
78383;BME280;67668;52.294;4.692;2023-11-22T03:52:06;103080.94;;;7.67;87.76
78383;BME280;67668;52.294;4.692;2023-11-22T03:54:31;103078.31;;;7.67;87.83
78383;BME280;67668;52.294;4.692;2023-11-22T03:56:58;103074.81;;;7.66;87.61
78383;BME280;67668;52.294;4.692;2023-11-22T03:59:23;103070.50;;;7.65;87.99
78383;BME280;67668;52.294;4.692;2023-11-22T04:01:49;103081.09;;;7.64;87.64
78383;BME280;67668;52.294;4.692;2023-11-22T04:04:15;103085.50;;;7.63;88.10
78383;BME280;67668;52.294;4.692;2023-11-22T04:06:41;103085.50;;;7.63;87.59
78383;BME280;67668;52.294;4.692;2023-11-22T04:09:06;103086.41;;;7.62;87.51
78383;BME280;67668;52.294;4.692;2023-11-22T04:11:33;103094.31;;;7.62;87.65
78383;BME280;67668;52.294;4.692;2023-11-22T04:14:00;103096.94;;;7.62;88.40
78383;BME280;67668;52.294;4.692;2023-11-22T04:16:25;103095.25;;;7.61;88.02
78383;BME280;67668;52.294;4.692;2023-11-22T04:18:50;103083.00;;;7.60;88.53
78383;BME280;67668;52.294;4.692;2023-11-22T04:21:16;103085.63;;;7.60;88.64
78383;BME280;67668;52.294;4.692;2023-11-22T04:23:41;103085.63;;;7.60;88.54
78383;BME280;67668;52.294;4.692;2023-11-22T04:26:07;103091.81;;;7.59;88.56
78383;BME280;67668;52.294;4.692;2023-11-22T04:28:33;103093.63;;;7.59;88.34
78383;BME280;67668;52.294;4.692;2023-11-22T04:30:59;103100.66;;;7.58;88.42
78383;BME280;67668;52.294;4.692;2023-11-22T04:33:24;103091.00;;;7.59;88.58
78383;BME280;67668;52.294;4.692;2023-11-22T04:35:50;103096.31;;;7.57;88.25
78383;BME280;67668;52.294;4.692;2023-11-22T04:38:15;103098.94;;;7.57;89.00
78383;BME280;67668;52.294;4.692;2023-11-22T04:40:41;103095.44;;;7.57;88.39
78383;BME280;67668;52.294;4.692;2023-11-22T04:43:10;103089.31;;;7.56;88.50
78383;BME280;67668;52.294;4.692;2023-11-22T04:45:35;103093.72;;;7.56;88.46
78383;BME280;67668;52.294;4.692;2023-11-22T04:48:01;103089.47;;;7.53;88.19
78383;BME280;67668;52.294;4.692;2023-11-22T04:50:26;103082.50;;;7.52;88.55
78383;BME280;67668;52.294;4.692;2023-11-22T04:52:52;103084.28;;;7.52;88.90
78383;BME280;67668;52.294;4.692;2023-11-22T04:55:17;103093.94;;;7.51;88.34
78383;BME280;67668;52.294;4.692;2023-11-22T04:57:44;103104.53;;;7.50;88.56
78383;BME280;67668;52.294;4.692;2023-11-22T05:00:10;103097.63;;;7.47;88.97
78383;BME280;67668;52.294;4.692;2023-11-22T05:02:35;103096.84;;;7.45;88.31
78383;BME280;67668;52.294;4.692;2023-11-22T05:05:01;103100.47;;;7.43;87.95
78383;BME280;67668;52.294;4.692;2023-11-22T05:07:26;103104.91;;;7.42;88.50
78383;BME280;67668;52.294;4.692;2023-11-22T05:09:52;103115.53;;;7.39;88.65
78383;BME280;67668;52.294;4.692;2023-11-22T05:12:17;103110.41;;;7.36;88.02
78383;BME280;67668;52.294;4.692;2023-11-22T05:14:43;103112.31;;;7.33;88.19
78383;BME280;67668;52.294;4.692;2023-11-22T05:17:11;103098.44;;;7.29;87.96
78383;BME280;67668;52.294;4.692;2023-11-22T05:19:37;103101.06;;;7.29;87.75
78383;BME280;67668;52.294;4.692;2023-11-22T05:22:03;103088.00;;;7.26;87.84
78383;BME280;67668;52.294;4.692;2023-11-22T05:24:28;103075.78;;;7.25;88.39
78383;BME280;67668;52.294;4.692;2023-11-22T05:26:54;103081.09;;;7.23;87.93
78383;BME280;67668;52.294;4.692;2023-11-22T05:29:19;103075.91;;;7.22;88.46
78383;BME280;67668;52.294;4.692;2023-11-22T05:31:44;103074.25;;;7.19;88.22
78383;BME280;67668;52.294;4.692;2023-11-22T05:34:10;103075.09;;;7.20;88.27
78383;BME280;67668;52.294;4.692;2023-11-22T05:36:35;103076.06;;;7.19;88.56
78383;BME280;67668;52.294;4.692;2023-11-22T05:39:02;103075.31;;;7.15;88.45
78383;BME280;67668;52.294;4.692;2023-11-22T05:41:29;103082.41;;;7.13;87.96
78383;BME280;67668;52.294;4.692;2023-11-22T05:43:54;103093.03;;;7.12;88.30
78383;BME280;67668;52.294;4.692;2023-11-22T05:46:21;103093.06;;;7.10;89.01
78383;BME280;67668;52.294;4.692;2023-11-22T05:48:56;103089.53;;;7.11;88.92
78383;BME280;67668;52.294;4.692;2023-11-22T05:51:21;103086.91;;;7.11;88.46
78383;BME280;67668;52.294;4.692;2023-11-22T05:53:47;103093.94;;;7.11;88.86
78383;BME280;67668;52.294;4.692;2023-11-22T05:56:12;103103.75;;;7.07;88.54
78383;BME280;67668;52.294;4.692;2023-11-22T05:58:38;103110.91;;;7.04;88.58
78383;BME280;67668;52.294;4.692;2023-11-22T06:01:04;103129.34;;;7.04;88.78
78383;BME280;67668;52.294;4.692;2023-11-22T06:03:30;103134.59;;;7.04;89.02
78383;BME280;67668;52.294;4.692;2023-11-22T06:05:56;103141.59;;;7.05;88.17
78383;BME280;67668;52.294;4.692;2023-11-22T06:08:22;103146.84;;;7.05;88.00
78383;BME280;67668;52.294;4.692;2023-11-22T06:10:48;103139.88;;;7.04;88.39
78383;BME280;67668;52.294;4.692;2023-11-22T06:13:13;103145.13;;;7.04;88.55
78383;BME280;67668;52.294;4.692;2023-11-22T06:15:39;103155.78;;;7.01;88.45
78383;BME280;67668;52.294;4.692;2023-11-22T06:18:04;103137.44;;;6.99;88.11
78383;BME280;67668;52.294;4.692;2023-11-22T06:20:29;103137.44;;;6.99;88.86
78383;BME280;67668;52.294;4.692;2023-11-22T06:22:55;103131.31;;;6.99;88.26
78383;BME280;67668;52.294;4.692;2023-11-22T06:25:20;103126.91;;;6.99;89.03
78383;BME280;67668;52.294;4.692;2023-11-22T06:27:45;103110.16;;;7.00;88.57
78383;BME280;67668;52.294;4.692;2023-11-22T06:30:11;103108.41;;;7.01;89.41
78383;BME280;67668;52.294;4.692;2023-11-22T06:32:36;103098.00;;;6.98;88.36
78383;BME280;67668;52.294;4.692;2023-11-22T06:35:01;103100.75;;;6.95;87.72
78383;BME280;67668;52.294;4.692;2023-11-22T06:37:28;103101.78;;;6.91;87.18
78383;BME280;67668;52.294;4.692;2023-11-22T06:39:53;103094.94;;;6.87;87.58
78383;BME280;67668;52.294;4.692;2023-11-22T06:42:18;103090.75;;;6.83;87.40
78383;BME280;67668;52.294;4.692;2023-11-22T06:44:47;103086.53;;;6.79;87.45
78383;BME280;67668;52.294;4.692;2023-11-22T06:47:13;103086.66;;;6.75;87.12
78383;BME280;67668;52.294;4.692;2023-11-22T06:49:38;103091.19;;;6.72;86.57
78383;BME280;67668;52.294;4.692;2023-11-22T06:52:04;103078.06;;;6.70;86.98
78383;BME280;67668;52.294;4.692;2023-11-22T06:54:29;103088.78;;;6.66;86.89
78383;BME280;67668;52.294;4.692;2023-11-22T06:56:54;103107.25;;;6.64;86.83
78383;BME280;67668;52.294;4.692;2023-11-22T06:59:20;103124.81;;;6.64;86.62
78383;BME280;67668;52.294;4.692;2023-11-22T07:01:45;103134.59;;;6.60;86.70
78383;BME280;67668;52.294;4.692;2023-11-22T07:04:10;103149.47;;;6.61;87.98
78383;BME280;67668;52.294;4.692;2023-11-22T07:06:36;103150.38;;;6.60;88.15
78383;BME280;67668;52.294;4.692;2023-11-22T07:09:03;103153.97;;;6.59;86.99
78383;BME280;67668;52.294;4.692;2023-11-22T07:11:29;103155.72;;;6.59;87.04
78383;BME280;67668;52.294;4.692;2023-11-22T07:13:54;103144.47;;;6.55;86.88
78383;BME280;67668;52.294;4.692;2023-11-22T07:16:19;103137.47;;;6.54;86.99
78383;BME280;67668;52.294;4.692;2023-11-22T07:18:45;103125.22;;;6.53;86.61
78383;BME280;67668;52.294;4.692;2023-11-22T07:21:11;103120.03;;;6.52;87.75
78383;BME280;67668;52.294;4.692;2023-11-22T07:23:37;103120.91;;;6.52;87.52
78383;BME280;67668;52.294;4.692;2023-11-22T07:26:03;103119.06;;;6.54;88.53
78383;BME280;67668;52.294;4.692;2023-11-22T07:28:28;103130.31;;;6.58;88.04
78383;BME280;67668;52.294;4.692;2023-11-22T07:30:54;103127.66;;;6.59;88.11
78383;BME280;67668;52.294;4.692;2023-11-22T07:33:19;103141.59;;;6.61;87.52
78383;BME280;67668;52.294;4.692;2023-11-22T07:35:46;103143.31;;;6.62;87.27
78383;BME280;67668;52.294;4.692;2023-11-22T07:38:11;103159.88;;;6.64;86.81
78383;BME280;67668;52.294;4.692;2023-11-22T07:40:36;103159.88;;;6.64;86.83
78383;BME280;67668;52.294;4.692;2023-11-22T07:43:02;103161.66;;;6.64;86.95
78383;BME280;67668;52.294;4.692;2023-11-22T07:45:30;103164.25;;;6.65;87.07
78383;BME280;67668;52.294;4.692;2023-11-22T07:47:55;103171.19;;;6.66;86.53
78383;BME280;67668;52.294;4.692;2023-11-22T07:50:23;103180.81;;;6.67;86.87
78383;BME280;67668;52.294;4.692;2023-11-22T07:52:49;103182.53;;;6.68;87.78
78383;BME280;67668;52.294;4.692;2023-11-22T07:55:15;103195.69;;;6.68;87.40
78383;BME280;67668;52.294;4.692;2023-11-22T07:57:46;103192.19;;;6.68;87.74
78383;BME280;67668;52.294;4.692;2023-11-22T08:00:12;103197.56;;;6.65;85.89
78383;BME280;67668;52.294;4.692;2023-11-22T08:02:37;103197.63;;;6.63;86.58
78383;BME280;67668;52.294;4.692;2023-11-22T08:05:08;103200.22;;;6.65;87.39
78383;BME280;67668;52.294;4.692;2023-11-22T08:07:35;103206.34;;;6.65;87.70
78383;BME280;67668;52.294;4.692;2023-11-22T08:10:03;103193.19;;;6.65;87.86
78383;BME280;67668;52.294;4.692;2023-11-22T08:12:34;103186.97;;;6.66;88.02
78383;BME280;67668;52.294;4.692;2023-11-22T08:15:00;103193.97;;;6.67;87.40
78383;BME280;67668;52.294;4.692;2023-11-22T08:17:27;103201.81;;;6.69;88.04
78383;BME280;67668;52.294;4.692;2023-11-22T08:19:52;103215.81;;;6.69;88.23
78383;BME280;67668;52.294;4.692;2023-11-22T08:22:18;103227.16;;;6.71;88.67
78383;BME280;67668;52.294;4.692;2023-11-22T08:24:43;103228.88;;;6.72;88.23
78383;BME280;67668;52.294;4.692;2023-11-22T08:27:09;103225.31;;;6.73;88.43
78383;BME280;67668;52.294;4.692;2023-11-22T08:29:34;103214.72;;;6.75;88.75
78383;BME280;67668;52.294;4.692;2023-11-22T08:31:59;103219.13;;;6.74;88.21
78383;BME280;67668;52.294;4.692;2023-11-22T08:34:25;103205.06;;;6.75;88.60
78383;BME280;67668;52.294;4.692;2023-11-22T08:36:50;103204.13;;;6.76;88.48
78383;BME280;67668;52.294;4.692;2023-11-22T08:39:16;103201.38;;;6.80;88.76
78383;BME280;67668;52.294;4.692;2023-11-22T08:41:41;103194.34;;;6.80;88.44
78383;BME280;67668;52.294;4.692;2023-11-22T08:44:06;103188.16;;;6.81;88.25
78383;BME280;67668;52.294;4.692;2023-11-22T08:46:32;103189.91;;;6.82;88.85
78383;BME280;67668;52.294;4.692;2023-11-22T08:48:57;103181.06;;;6.83;88.61
78383;BME280;67668;52.294;4.692;2023-11-22T08:51:23;103185.38;;;6.86;87.95
78383;BME280;67668;52.294;4.692;2023-11-22T08:53:48;103176.53;;;6.87;88.16
78383;BME280;67668;52.294;4.692;2023-11-22T08:56:14;103181.75;;;6.88;88.43
78383;BME280;67668;52.294;4.692;2023-11-22T08:58:41;103180.84;;;6.89;88.42
78383;BME280;67668;52.294;4.692;2023-11-22T09:01:08;103186.91;;;6.91;88.96
78383;BME280;67668;52.294;4.692;2023-11-22T09:03:33;103202.59;;;6.93;88.21
78383;BME280;67668;52.294;4.692;2023-11-22T09:05:59;103210.50;;;6.93;87.60
78383;BME280;67668;52.294;4.692;2023-11-22T09:08:25;103207.81;;;6.94;88.76
78383;BME280;67668;52.294;4.692;2023-11-22T09:10:50;103207.78;;;6.96;88.69
78383;BME280;67668;52.294;4.692;2023-11-22T09:13:16;103205.94;;;6.98;87.93
78383;BME280;67668;52.294;4.692;2023-11-22T09:15:44;103203.31;;;6.98;88.91
78383;BME280;67668;52.294;4.692;2023-11-22T09:18:10;103208.44;;;7.01;88.18
78383;BME280;67668;52.294;4.692;2023-11-22T09:20:37;103199.56;;;7.03;89.04
78383;BME280;67668;52.294;4.692;2023-11-22T09:23:03;103196.88;;;7.05;89.31
78383;BME280;67668;52.294;4.692;2023-11-22T09:25:30;103191.53;;;7.06;88.79
78383;BME280;67668;52.294;4.692;2023-11-22T09:27:57;103194.13;;;7.08;88.79
78383;BME280;67668;52.294;4.692;2023-11-22T09:30:30;103196.75;;;7.08;88.90
78383;BME280;67668;52.294;4.692;2023-11-22T09:35:26;103193.13;;;7.10;88.59
78383;BME280;67668;52.294;4.692;2023-11-22T09:37:54;103191.34;;;7.11;88.20
78383;BME280;67668;52.294;4.692;2023-11-22T09:40:21;103181.59;;;7.13;89.03
78383;BME280;67668;52.294;4.692;2023-11-22T09:42:48;103179.91;;;7.12;88.57
78383;BME280;67668;52.294;4.692;2023-11-22T09:45:17;103185.97;;;7.14;88.49
78383;BME280;67668;52.294;4.692;2023-11-22T09:47:43;103182.44;;;7.15;88.41
78383;BME280;67668;52.294;4.692;2023-11-22T09:50:10;103171.91;;;7.15;88.40
78383;BME280;67668;52.294;4.692;2023-11-22T09:52:40;103177.06;;;7.16;88.36
78383;BME280;67668;52.294;4.692;2023-11-22T09:55:08;103171.75;;;7.18;88.69
78383;BME280;67668;52.294;4.692;2023-11-22T09:57:34;103162.97;;;7.19;87.85
78383;BME280;67668;52.294;4.692;2023-11-22T10:00:02;103159.38;;;7.20;88.07
78383;BME280;67668;52.294;4.692;2023-11-22T10:02:27;103160.19;;;7.22;88.05
78383;BME280;67668;52.294;4.692;2023-11-22T10:04:54;103153.97;;;7.23;88.12
78383;BME280;67668;52.294;4.692;2023-11-22T10:07:19;103147.81;;;7.24;88.29
78383;BME280;67668;52.294;4.692;2023-11-22T10:09:44;103148.59;;;7.26;88.49
78383;BME280;67668;52.294;4.692;2023-11-22T10:12:12;103147.66;;;7.27;88.57
78383;BME280;67668;52.294;4.692;2023-11-22T10:14:37;103149.31;;;7.29;88.44
78383;BME280;67668;52.294;4.692;2023-11-22T10:17:03;103154.53;;;7.31;88.57
78383;BME280;67668;52.294;4.692;2023-11-22T10:19:30;103142.13;;;7.33;88.08
78383;BME280;67668;52.294;4.692;2023-11-22T10:22:08;103127.16;;;7.35;88.94
78383;BME280;67668;52.294;4.692;2023-11-22T10:24:34;103125.25;;;7.39;89.04
78383;BME280;67668;52.294;4.692;2023-11-22T10:27:01;103119.84;;;7.42;88.41
78383;BME280;67668;52.294;4.692;2023-11-22T10:29:27;103123.34;;;7.42;88.56
78383;BME280;67668;52.294;4.692;2023-11-22T10:31:52;103126.81;;;7.43;87.84
78383;BME280;67668;52.294;4.692;2023-11-22T10:34:24;103124.97;;;7.45;87.98
78383;BME280;67668;52.294;4.692;2023-11-22T10:36:50;103120.44;;;7.48;88.23
78383;BME280;67668;52.294;4.692;2023-11-22T10:39:20;103108.03;;;7.50;88.37
78383;BME280;67668;52.294;4.692;2023-11-22T10:41:45;103107.91;;;7.53;88.75
78383;BME280;67668;52.294;4.692;2023-11-22T10:44:11;103113.03;;;7.56;88.61
78383;BME280;67668;52.294;4.692;2023-11-22T10:46:38;103100.66;;;7.58;88.71
78383;BME280;67668;52.294;4.692;2023-11-22T10:49:04;103104.03;;;7.62;88.98
78383;BME280;67668;52.294;4.692;2023-11-22T10:51:31;103103.03;;;7.64;88.32
78383;BME280;67668;52.294;4.692;2023-11-22T10:53:58;103102.91;;;7.67;87.85
78383;BME280;67668;52.294;4.692;2023-11-22T10:56:26;103096.72;;;7.68;88.21
78383;BME280;67668;52.294;4.692;2023-11-22T10:58:56;103107.13;;;7.71;87.55
78383;BME280;67668;52.294;4.692;2023-11-22T11:01:26;103101.75;;;7.73;87.93
78383;BME280;67668;52.294;4.692;2023-11-22T11:03:56;103099.78;;;7.78;88.08
78383;BME280;67668;52.294;4.692;2023-11-22T11:06:31;103100.56;;;7.80;87.32
78383;BME280;67668;52.294;4.692;2023-11-22T11:09:00;103090.75;;;7.84;87.75
78383;BME280;67668;52.294;4.692;2023-11-22T11:11:27;103082.69;;;7.87;87.62
78383;BME280;67668;52.294;4.692;2023-11-22T11:13:53;103072.94;;;7.89;87.25
78383;BME280;67668;52.294;4.692;2023-11-22T11:16:19;103071.09;;;7.91;86.96
78383;BME280;67668;52.294;4.692;2023-11-22T11:18:45;103063.03;;;7.94;87.24
78383;BME280;67668;52.294;4.692;2023-11-22T11:21:11;103061.25;;;7.94;87.00
78383;BME280;67668;52.294;4.692;2023-11-22T11:23:38;103067.38;;;7.95;86.56
78383;BME280;67668;52.294;4.692;2023-11-22T11:26:18;103068.09;;;7.98;86.64
78383;BME280;67668;52.294;4.692;2023-11-22T11:28:47;103058.34;;;8.00;86.44
78383;BME280;67668;52.294;4.692;2023-11-22T11:31:13;103055.56;;;8.03;86.96
78383;BME280;67668;52.294;4.692;2023-11-22T11:36:24;103061.53;;;8.07;86.35
78383;BME280;67668;52.294;4.692;2023-11-22T11:38:51;103047.19;;;8.12;86.75
78383;BME280;67668;52.294;4.692;2023-11-22T11:41:17;103047.16;;;8.14;87.07
78383;BME280;67668;52.294;4.692;2023-11-22T11:43:42;103046.13;;;8.16;86.17
78383;BME280;67668;52.294;4.692;2023-11-22T11:46:10;103038.94;;;8.20;86.65
78383;BME280;67668;52.294;4.692;2023-11-22T11:48:36;103036.16;;;8.23;86.19
78383;BME280;67668;52.294;4.692;2023-11-22T11:51:01;103033.47;;;8.24;86.09
78383;BME280;67668;52.294;4.692;2023-11-22T11:53:27;103025.41;;;8.27;86.14
78383;BME280;67668;52.294;4.692;2023-11-22T11:55:53;103007.81;;;8.28;85.41
78383;BME280;67668;52.294;4.692;2023-11-22T11:58:19;103008.53;;;8.32;85.13
78383;BME280;67668;52.294;4.692;2023-11-22T12:00:44;103009.25;;;8.35;85.23
78383;BME280;67668;52.294;4.692;2023-11-22T12:03:10;103004.72;;;8.37;85.13
78383;BME280;67668;52.294;4.692;2023-11-22T12:05:39;102999.25;;;8.42;85.38
78383;BME280;67668;52.294;4.692;2023-11-22T12:08:04;103001.78;;;8.43;85.82
78383;BME280;67668;52.294;4.692;2023-11-22T12:10:30;102996.34;;;8.46;85.83
78383;BME280;67668;52.294;4.692;2023-11-22T12:12:56;102995.44;;;8.47;85.22
78383;BME280;67668;52.294;4.692;2023-11-22T12:15:21;102996.19;;;8.49;85.53
78383;BME280;67668;52.294;4.692;2023-11-22T12:17:49;102987.22;;;8.53;85.86
78383;BME280;67668;52.294;4.692;2023-11-22T12:20:17;102987.97;;;8.55;85.59
78383;BME280;67668;52.294;4.692;2023-11-22T12:22:46;102972.94;;;8.57;85.50
78383;BME280;67668;52.294;4.692;2023-11-22T12:25:11;102968.28;;;8.62;85.62
78383;BME280;67668;52.294;4.692;2023-11-22T12:27:38;102962.06;;;8.63;85.84
78383;BME280;67668;52.294;4.692;2023-11-22T12:30:04;102954.91;;;8.65;85.13
78383;BME280;67668;52.294;4.692;2023-11-22T12:32:29;102952.13;;;8.68;84.80
78383;BME280;67668;52.294;4.692;2023-11-22T12:34:55;102957.28;;;8.71;84.98
78383;BME280;67668;52.294;4.692;2023-11-22T12:37:20;102956.31;;;8.72;84.30
78383;BME280;67668;52.294;4.692;2023-11-22T12:39:47;102958.03;;;8.73;84.36
78383;BME280;67668;52.294;4.692;2023-11-22T12:42:13;102953.50;;;8.75;83.51
78383;BME280;67668;52.294;4.692;2023-11-22T12:44:50;102964.88;;;8.77;83.64
78383;BME280;67668;52.294;4.692;2023-11-22T12:47:36;102956.84;;;8.79;83.51
78383;BME280;67668;52.294;4.692;2023-11-22T12:50:02;102945.44;;;8.78;83.53
78383;BME280;67668;52.294;4.692;2023-11-22T12:52:29;102940.16;;;8.78;83.20
78383;BME280;67668;52.294;4.692;2023-11-22T12:54:57;102944.44;;;8.81;82.81
78383;BME280;67668;52.294;4.692;2023-11-22T12:57:23;102925.88;;;8.82;82.97
78383;BME280;67668;52.294;4.692;2023-11-22T12:59:49;102926.66;;;8.85;83.67